createdAt,value
2019-03-25T00:00:48.623Z,2.59
2019-03-25T00:01:48.612Z,2.57
2019-03-25T00:02:48.602Z,2.60
2019-03-25T00:03:48.593Z,2.56
2019-03-25T00:04:48.579Z,2.53
2019-03-25T00:05:48.568Z,2.53
2019-03-25T00:06:48.560Z,2.54
2019-03-25T00:07:48.549Z,2.52
2019-03-25T00:08:48.536Z,2.56
2019-03-25T00:09:48.525Z,2.52
2019-03-25T00:10:48.517Z,2.52
2019-03-25T00:11:48.503Z,2.52
2019-03-25T00:12:48.498Z,2.60
2019-03-25T00:13:48.485Z,2.63
2019-03-25T00:14:48.536Z,2.60
2019-03-25T00:15:48.466Z,2.60
2019-03-25T00:16:48.454Z,2.66
2019-03-25T00:17:48.439Z,2.66
2019-03-25T00:18:48.436Z,2.63
2019-03-25T00:19:48.419Z,2.71
2019-03-25T00:20:48.414Z,2.71
2019-03-25T00:21:48.398Z,2.61
2019-03-25T00:22:48.388Z,2.77
2019-03-25T00:23:48.375Z,2.77
2019-03-25T00:24:48.366Z,2.79
2019-03-25T00:25:48.358Z,2.81
2019-03-25T00:26:48.348Z,2.79
2019-03-25T00:27:48.333Z,2.78
2019-03-25T00:28:48.327Z,2.72
2019-03-25T00:29:48.314Z,2.77
2019-03-25T00:30:48.300Z,2.74
2019-03-25T00:31:48.290Z,2.75
2019-03-25T00:32:48.280Z,2.72
2019-03-25T00:33:48.272Z,2.72
2019-03-25T00:34:48.259Z,2.77
2019-03-25T00:35:48.254Z,2.61
2019-03-25T00:36:48.237Z,2.66
2019-03-25T00:37:48.227Z,2.61
2019-03-25T00:38:48.235Z,2.69
2019-03-25T00:39:48.204Z,2.63
2019-03-25T00:40:48.194Z,2.66
2019-03-25T00:41:48.185Z,2.63
2019-03-25T00:42:48.177Z,2.59
2019-03-25T00:43:48.163Z,2.56
2019-03-25T00:44:48.151Z,2.60
2019-03-25T00:45:48.144Z,2.56
2019-03-25T00:46:48.130Z,2.52
2019-03-25T00:47:48.120Z,2.45
2019-03-25T00:48:48.112Z,2.46
2019-03-25T00:49:48.100Z,2.43
2019-03-25T00:50:48.091Z,2.42
2019-03-25T00:51:48.076Z,2.39
2019-03-25T00:52:48.065Z,2.46
2019-03-25T00:53:48.059Z,2.28
2019-03-25T00:54:50.129Z,2.38
2019-03-25T00:55:48.035Z,2.45
2019-03-25T00:56:48.026Z,2.35
2019-03-25T00:57:48.016Z,2.48
2019-03-25T00:58:48.002Z,2.42
2019-03-25T00:59:49.069Z,2.43
2019-03-25T01:00:47.984Z,2.54
2019-03-25T01:01:47.970Z,2.56
2019-03-25T01:02:47.965Z,2.52
2019-03-25T01:03:47.952Z,2.60
2019-03-25T01:04:47.939Z,2.67
2019-03-25T01:05:47.930Z,2.64
2019-03-25T01:06:47.920Z,2.64
2019-03-25T01:07:47.909Z,2.69
2019-03-25T01:08:47.904Z,2.67
2019-03-25T01:09:47.889Z,2.78
2019-03-25T01:10:47.872Z,2.75
2019-03-25T01:11:49.324Z,2.78
2019-03-25T01:12:47.860Z,2.82
2019-03-25T01:13:47.851Z,2.82
2019-03-25T01:14:47.836Z,2.90
2019-03-25T01:15:47.823Z,2.93
2019-03-25T01:16:47.813Z,2.92
2019-03-25T01:17:47.801Z,3.03
2019-03-25T01:18:47.795Z,2.99
2019-03-25T01:19:47.777Z,3.08
2019-03-25T01:20:47.769Z,3.02
2019-03-25T01:21:47.761Z,2.99
2019-03-25T01:22:47.747Z,3.03
2019-03-25T01:23:47.739Z,3.00
2019-03-25T01:24:47.726Z,3.08
2019-03-25T01:25:47.715Z,3.15
2019-03-25T01:26:47.707Z,3.17
2019-03-25T01:27:47.693Z,3.14
2019-03-25T01:28:47.691Z,3.17
2019-03-25T01:29:47.669Z,3.14
2019-03-25T01:30:47.664Z,3.20
2019-03-25T01:31:47.650Z,3.24
2019-03-25T01:32:47.638Z,3.13
2019-03-25T01:33:47.627Z,3.26
2019-03-25T01:34:47.619Z,3.29
2019-03-25T01:35:47.609Z,3.24
2019-03-25T01:36:47.597Z,3.21
2019-03-25T01:37:47.584Z,3.26
2019-03-25T01:38:47.577Z,3.26
2019-03-25T01:39:47.568Z,3.24
2019-03-25T01:40:47.552Z,3.14
2019-03-25T01:41:47.545Z,3.14
2019-03-25T01:42:47.530Z,3.17
2019-03-25T01:43:47.523Z,3.15
2019-03-25T01:44:47.511Z,3.20
2019-03-25T01:45:47.498Z,3.10
2019-03-25T01:46:47.487Z,3.08
2019-03-25T01:47:47.479Z,3.18
2019-03-25T01:48:47.473Z,3.20
2019-03-25T01:49:47.465Z,3.11
2019-03-25T01:50:47.448Z,3.13
2019-03-25T01:51:47.434Z,3.14
2019-03-25T01:52:47.427Z,3.17
2019-03-25T01:53:47.414Z,3.17
2019-03-25T01:54:47.404Z,3.10
2019-03-25T01:55:47.395Z,3.14
2019-03-25T01:56:47.383Z,3.11
2019-03-25T01:57:47.370Z,3.15
2019-03-25T01:58:47.364Z,3.17
2019-03-25T01:59:47.352Z,3.10
2019-03-25T02:00:47.340Z,3.08
2019-03-25T02:01:47.326Z,3.15
2019-03-25T02:02:47.315Z,3.15
2019-03-25T02:03:47.308Z,3.17
2019-03-25T02:04:47.297Z,3.05
2019-03-25T02:05:47.286Z,3.08
2019-03-25T02:06:47.274Z,3.03
2019-03-25T02:07:47.265Z,3.02
2019-03-25T02:08:47.253Z,2.96
2019-03-25T02:09:47.245Z,3.02
2019-03-25T02:10:47.233Z,3.02
2019-03-25T02:11:47.222Z,3.00
2019-03-25T02:12:47.210Z,2.95
2019-03-25T02:13:47.202Z,3.02
2019-03-25T02:14:47.190Z,3.08
2019-03-25T02:15:47.180Z,3.06
2019-03-25T02:16:47.169Z,3.11
2019-03-25T02:17:47.157Z,3.20
2019-03-25T02:18:47.152Z,3.08
2019-03-25T02:19:47.137Z,3.14
2019-03-25T02:20:47.129Z,3.15
2019-03-25T02:21:47.114Z,3.23
2019-03-25T02:22:47.341Z,3.23
2019-03-25T02:23:47.097Z,3.15
2019-03-25T02:24:47.084Z,3.28
2019-03-25T02:25:47.074Z,3.24
2019-03-25T02:26:47.060Z,3.26
2019-03-25T02:27:47.052Z,3.26
2019-03-25T02:28:47.044Z,3.31
2019-03-25T02:29:47.027Z,3.28
2019-03-25T02:30:47.024Z,3.32
2019-03-25T02:31:47.012Z,3.18
2019-03-25T02:32:46.996Z,3.35
2019-03-25T02:33:46.986Z,3.26
2019-03-25T02:35:01.605Z,3.23
2019-03-25T02:35:46.975Z,3.29
2019-03-25T02:36:46.953Z,3.33
2019-03-25T02:37:46.943Z,3.36
2019-03-25T02:38:46.934Z,3.32
2019-03-25T02:39:46.921Z,3.32
2019-03-25T02:40:46.915Z,3.31
2019-03-25T02:41:46.901Z,3.29
2019-03-25T02:42:46.890Z,3.24
2019-03-25T02:43:46.885Z,3.33
2019-03-25T02:44:46.867Z,3.26
2019-03-25T02:45:46.857Z,3.24
2019-03-25T02:46:46.848Z,3.26
2019-03-25T02:47:46.836Z,3.24
2019-03-25T02:48:46.827Z,3.14
2019-03-25T02:49:46.821Z,3.10
2019-03-25T02:50:46.806Z,3.15
2019-03-25T02:51:46.794Z,3.10
2019-03-25T02:52:46.784Z,3.05
2019-03-25T02:53:46.773Z,2.99
2019-03-25T02:54:46.760Z,3.00
2019-03-25T02:55:46.751Z,3.00
2019-03-25T02:56:46.743Z,2.93
2019-03-25T02:57:46.729Z,2.85
2019-03-25T02:58:46.721Z,2.89
2019-03-25T02:59:46.707Z,2.84
2019-03-25T03:00:46.701Z,2.84
2019-03-25T03:01:46.687Z,2.84
2019-03-25T03:02:46.678Z,2.77
2019-03-25T03:03:46.664Z,2.69
2019-03-25T03:04:46.655Z,2.84
2019-03-25T03:05:46.645Z,2.79
2019-03-25T03:06:46.633Z,2.72
2019-03-25T03:07:46.623Z,2.74
2019-03-25T03:08:47.658Z,2.74
2019-03-25T03:09:46.604Z,2.63
2019-03-25T03:10:46.592Z,2.64
2019-03-25T03:11:46.583Z,2.66
2019-03-25T03:12:46.570Z,2.63
2019-03-25T03:13:46.567Z,2.66
2019-03-25T03:14:46.550Z,2.63
2019-03-25T03:15:46.537Z,2.63
2019-03-25T03:16:46.526Z,2.59
2019-03-25T03:17:46.519Z,2.67
2019-03-25T03:18:46.507Z,2.67
2019-03-25T03:19:46.493Z,2.72
2019-03-25T03:20:46.486Z,2.69
2019-03-25T03:21:46.474Z,2.71
2019-03-25T03:22:46.472Z,2.79
2019-03-25T03:23:46.473Z,2.81
2019-03-25T03:24:46.441Z,2.84
2019-03-25T03:25:57.336Z,2.84
2019-03-25T03:26:47.421Z,2.90
2019-03-25T03:27:46.413Z,2.85
2019-03-25T03:28:46.405Z,2.93
2019-03-25T03:29:46.387Z,2.87
2019-03-25T03:30:46.377Z,2.89
2019-03-25T03:31:46.410Z,2.87
2019-03-25T03:32:46.507Z,2.87
2019-03-25T03:33:46.346Z,2.87
2019-03-25T03:34:46.348Z,2.92
2019-03-25T03:35:46.780Z,2.90
2019-03-25T03:36:46.313Z,2.95
2019-03-25T03:37:46.305Z,2.96
2019-03-25T03:38:46.301Z,2.87
2019-03-25T03:39:46.280Z,2.90
2019-03-25T03:40:46.334Z,2.90
2019-03-25T03:41:46.261Z,2.95
2019-03-25T03:42:46.249Z,3.02
2019-03-25T03:43:46.239Z,3.05
2019-03-25T03:44:46.227Z,3.03
2019-03-25T03:45:46.218Z,2.96
2019-03-25T03:46:46.205Z,3.02
2019-03-25T03:47:46.199Z,2.97
2019-03-25T03:48:46.186Z,2.90
2019-03-25T03:49:46.201Z,2.92
2019-03-25T03:50:46.164Z,2.95
2019-03-25T03:51:46.153Z,2.87
2019-03-25T03:52:46.143Z,2.84
2019-03-25T03:53:46.137Z,2.85
2019-03-25T03:54:46.162Z,2.81
2019-03-25T03:55:46.109Z,2.89
2019-03-25T03:56:46.099Z,2.87
2019-03-25T03:57:46.093Z,2.89
2019-03-25T03:58:46.083Z,2.89
2019-03-25T03:59:46.066Z,2.95
2019-03-25T04:00:46.057Z,2.96
2019-03-25T04:01:46.046Z,2.89
2019-03-25T04:02:46.038Z,2.95
2019-03-25T04:03:46.026Z,3.10
2019-03-25T04:04:46.015Z,2.96
2019-03-25T04:05:46.003Z,3.02
2019-03-25T04:06:45.994Z,2.97
2019-03-25T04:07:45.980Z,3.02
2019-03-25T04:08:45.973Z,3.05
2019-03-25T04:09:45.960Z,3.11
2019-03-25T04:10:45.950Z,3.00
2019-03-25T04:11:45.939Z,3.11
2019-03-25T04:12:45.930Z,3.03
2019-03-25T04:13:45.920Z,3.00
2019-03-25T04:14:45.906Z,3.02
2019-03-25T04:15:45.900Z,2.95
2019-03-25T04:16:45.887Z,3.02
2019-03-25T04:17:45.874Z,3.15
2019-03-25T04:18:45.870Z,3.08
2019-03-25T04:19:45.856Z,3.10
2019-03-25T04:20:45.842Z,3.03
2019-03-25T04:21:45.837Z,3.08
2019-03-25T04:22:45.820Z,3.14
2019-03-25T04:23:46.487Z,3.13
2019-03-25T04:24:45.799Z,3.06
2019-03-25T04:25:45.790Z,3.08
2019-03-25T04:26:45.779Z,3.03
2019-03-25T04:27:45.768Z,2.96
2019-03-25T04:28:45.764Z,2.96
2019-03-25T04:29:45.749Z,2.92
2019-03-25T04:30:45.736Z,2.87
2019-03-25T04:31:45.725Z,2.97
2019-03-25T04:32:45.713Z,2.90
2019-03-25T04:33:45.705Z,2.96
2019-03-25T04:34:45.713Z,2.93
2019-03-25T04:35:45.682Z,3.02
2019-03-25T04:36:45.673Z,2.99
2019-03-25T04:37:45.663Z,3.10
2019-03-25T04:38:45.653Z,3.13
2019-03-25T04:39:45.641Z,3.15
2019-03-25T04:40:45.634Z,3.15
2019-03-25T04:41:45.618Z,3.28
2019-03-25T04:42:45.607Z,3.24
2019-03-25T04:43:45.599Z,3.29
2019-03-25T04:44:45.585Z,3.29
2019-03-25T04:45:45.577Z,3.33
2019-03-25T04:46:45.565Z,3.40
2019-03-25T04:47:45.554Z,3.47
2019-03-25T04:48:45.547Z,3.50
2019-03-25T04:49:45.535Z,3.45
2019-03-25T04:50:45.523Z,3.54
2019-03-25T04:51:45.513Z,3.50
2019-03-25T04:52:45.501Z,3.65
2019-03-25T04:53:45.489Z,3.62
2019-03-25T04:54:45.478Z,3.68
2019-03-25T04:55:45.467Z,3.66
2019-03-25T04:56:45.461Z,3.75
2019-03-25T04:57:45.447Z,3.75
2019-03-25T04:58:45.440Z,3.69
2019-03-25T04:59:45.425Z,3.76
2019-03-25T05:00:45.415Z,3.78
2019-03-25T05:01:45.403Z,3.79
2019-03-25T05:02:45.394Z,3.79
2019-03-25T05:03:45.383Z,3.75
2019-03-25T05:04:45.431Z,3.88
2019-03-25T05:05:45.363Z,3.94
2019-03-25T05:06:45.351Z,3.91
2019-03-25T05:07:45.344Z,3.94
2019-03-25T05:08:45.330Z,3.93
2019-03-25T05:09:45.320Z,3.97
2019-03-25T05:10:45.315Z,3.97
2019-03-25T05:11:45.299Z,3.94
2019-03-25T05:12:45.286Z,3.97
2019-03-25T05:13:45.283Z,3.96
2019-03-25T05:14:45.266Z,4.05
2019-03-25T05:15:45.257Z,3.93
2019-03-25T05:16:45.244Z,3.90
2019-03-25T05:17:45.234Z,3.96
2019-03-25T05:18:45.226Z,3.98
2019-03-25T05:19:45.212Z,4.00
2019-03-25T05:20:45.201Z,4.00
2019-03-25T05:21:45.198Z,4.08
2019-03-25T05:22:45.181Z,4.09
2019-03-25T05:23:45.172Z,4.12
2019-03-25T05:24:45.160Z,4.06
2019-03-25T05:25:45.149Z,4.08
2019-03-25T05:26:51.055Z,4.23
2019-03-25T05:27:46.125Z,4.08
2019-03-25T05:28:45.118Z,4.18
2019-03-25T05:29:45.103Z,4.24
2019-03-25T05:30:45.173Z,4.20
2019-03-25T05:31:45.090Z,4.22
2019-03-25T05:32:45.075Z,4.18
2019-03-25T05:33:45.062Z,4.30
2019-03-25T05:34:45.054Z,4.26
2019-03-25T05:35:46.870Z,4.29
2019-03-25T05:36:45.029Z,4.29
2019-03-25T05:37:45.020Z,4.29
2019-03-25T05:38:45.013Z,4.33
2019-03-25T05:39:44.997Z,4.29
2019-03-25T05:40:44.989Z,4.34
2019-03-25T05:41:44.977Z,4.33
2019-03-25T05:42:44.966Z,4.44
2019-03-25T05:43:44.955Z,4.41
2019-03-25T05:44:44.947Z,4.50
2019-03-25T05:45:44.934Z,4.54
2019-03-25T05:46:44.924Z,4.59
2019-03-25T05:47:44.912Z,4.62
2019-03-25T05:48:44.904Z,4.59
2019-03-25T05:49:44.890Z,4.67
2019-03-25T05:50:44.884Z,4.69
2019-03-25T05:51:44.869Z,4.73
2019-03-25T05:52:44.858Z,4.78
2019-03-25T05:53:44.848Z,4.73
2019-03-25T05:54:44.839Z,4.73
2019-03-25T05:55:44.830Z,4.73
2019-03-25T05:56:44.814Z,4.77
2019-03-25T05:57:44.804Z,4.72
2019-03-25T05:58:44.798Z,4.67
2019-03-25T05:59:44.783Z,4.55
2019-03-25T06:00:44.776Z,4.51
2019-03-25T06:01:44.762Z,4.59
2019-03-25T06:02:44.751Z,4.50
2019-03-25T06:03:44.741Z,4.41
2019-03-25T06:04:44.730Z,4.29
2019-03-25T06:05:44.720Z,4.14
2019-03-25T06:06:44.713Z,3.97
2019-03-25T06:07:44.697Z,3.80
2019-03-25T06:08:44.691Z,3.72
2019-03-25T06:09:44.677Z,3.58
2019-03-25T06:10:44.664Z,3.57
2019-03-25T06:11:44.693Z,3.58
2019-03-25T06:12:44.645Z,3.57
2019-03-25T06:13:44.635Z,3.57
2019-03-25T06:14:44.622Z,3.58
2019-03-25T06:15:44.613Z,3.60
2019-03-25T06:16:44.602Z,3.68
2019-03-25T06:17:44.920Z,3.58
2019-03-25T06:18:44.580Z,3.57
2019-03-25T06:19:44.592Z,3.66
2019-03-25T06:20:44.559Z,3.61
2019-03-25T06:21:44.576Z,3.58
2019-03-25T06:22:44.551Z,3.57
2019-03-25T06:23:44.668Z,3.61
2019-03-25T06:24:44.646Z,3.61
2019-03-25T06:25:44.588Z,3.54
2019-03-25T06:26:44.495Z,3.61
2019-03-25T06:27:44.483Z,3.47
2019-03-25T06:28:44.473Z,3.48
2019-03-25T06:29:45.269Z,3.39
2019-03-25T06:30:44.453Z,3.40
2019-03-25T06:31:44.505Z,3.29
2019-03-25T06:32:44.430Z,3.24
2019-03-25T06:33:44.419Z,3.11
2019-03-25T06:34:44.410Z,3.18
2019-03-25T06:35:44.398Z,3.05
2019-03-25T06:36:44.386Z,2.97
2019-03-25T06:37:44.377Z,2.99
2019-03-25T06:38:44.369Z,2.89
2019-03-25T06:39:44.357Z,2.89
2019-03-25T06:40:44.345Z,2.77
2019-03-25T06:41:44.338Z,2.81
2019-03-25T06:42:44.324Z,2.75
2019-03-25T06:43:44.313Z,2.61
2019-03-25T06:44:44.327Z,2.67
2019-03-25T06:45:44.295Z,2.74
2019-03-25T06:46:44.281Z,2.63
2019-03-25T06:47:44.269Z,2.66
2019-03-25T06:48:44.262Z,2.67
2019-03-25T06:49:44.249Z,2.52
2019-03-25T06:50:44.237Z,2.46
2019-03-25T06:51:45.273Z,2.43
2019-03-25T06:52:44.217Z,2.45
2019-03-25T06:53:44.212Z,2.48
2019-03-25T06:54:44.195Z,2.43
2019-03-25T06:55:44.183Z,2.31
2019-03-25T06:56:44.174Z,2.24
2019-03-25T06:57:44.167Z,2.25
2019-03-25T06:58:44.155Z,2.16
2019-03-25T06:59:44.143Z,2.16
2019-03-25T07:00:44.130Z,2.09
2019-03-25T07:01:44.121Z,2.14
2019-03-25T07:02:44.112Z,2.09
2019-03-25T07:03:44.099Z,2.03
2019-03-25T07:04:44.090Z,2.05
2019-03-25T07:05:44.078Z,1.98
2019-03-25T07:06:44.072Z,2.00
2019-03-25T07:07:44.058Z,1.99
2019-03-25T07:08:44.049Z,1.95
2019-03-25T07:09:44.035Z,1.86
2019-03-25T07:10:44.024Z,1.87
2019-03-25T07:11:44.014Z,1.91
2019-03-25T07:12:44.011Z,1.83
2019-03-25T07:13:43.993Z,1.79
2019-03-25T07:14:43.981Z,1.73
2019-03-25T07:15:44.286Z,1.79
2019-03-25T07:16:43.962Z,1.80
2019-03-25T07:17:43.950Z,1.68
2019-03-25T07:18:43.948Z,1.69
2019-03-25T07:19:43.928Z,1.69
2019-03-25T07:20:43.922Z,1.63
2019-03-25T07:21:43.908Z,1.65
2019-03-25T07:22:43.897Z,1.79
2019-03-25T07:23:43.891Z,1.76
2019-03-25T07:24:43.875Z,1.73
2019-03-25T07:25:43.865Z,1.72
2019-03-25T07:26:43.854Z,1.76
2019-03-25T07:27:43.844Z,1.77
2019-03-25T07:28:43.841Z,1.77
2019-03-25T07:29:43.822Z,1.77
2019-03-25T07:30:43.811Z,1.76
2019-03-25T07:31:43.802Z,1.83
2019-03-25T07:32:43.790Z,1.95
2019-03-25T07:33:43.824Z,1.93
2019-03-25T07:34:43.768Z,1.99
2019-03-25T07:35:43.760Z,2.03
2019-03-25T07:36:43.748Z,2.12
2019-03-25T07:37:43.746Z,2.02
2019-03-25T07:38:43.732Z,2.10
2019-03-25T07:39:43.715Z,2.09
2019-03-25T07:40:43.706Z,2.24
2019-03-25T07:41:43.696Z,2.20
2019-03-25T07:42:43.684Z,2.31
2019-03-25T07:43:43.673Z,2.38
2019-03-25T07:44:43.667Z,2.45
2019-03-25T07:45:43.652Z,2.42
2019-03-25T07:46:43.645Z,2.43
2019-03-25T07:47:43.635Z,2.42
2019-03-25T07:48:43.623Z,2.45
2019-03-25T07:49:43.611Z,2.53
2019-03-25T07:50:43.598Z,2.54
2019-03-25T07:51:43.586Z,2.57
2019-03-25T07:52:43.579Z,2.63
2019-03-25T07:53:43.578Z,2.77
2019-03-25T07:54:43.567Z,2.72
2019-03-25T07:55:43.545Z,2.81
2019-03-25T07:56:43.544Z,2.75
2019-03-25T07:57:48.207Z,2.84
2019-03-25T07:58:44.520Z,2.87
2019-03-25T07:59:43.520Z,2.84
2019-03-25T08:00:43.509Z,2.87
2019-03-25T08:01:43.490Z,2.95
2019-03-25T08:02:43.485Z,2.89
2019-03-25T08:03:43.463Z,3.00
2019-03-25T08:04:43.448Z,3.03
2019-03-25T08:05:43.447Z,2.99
2019-03-25T08:06:43.477Z,3.08
2019-03-25T08:07:43.451Z,3.10
2019-03-25T08:08:43.419Z,3.20
2019-03-25T08:09:43.432Z,3.26
2019-03-25T08:10:43.392Z,3.26
2019-03-25T08:11:43.378Z,3.50
2019-03-25T08:12:43.399Z,3.57
2019-03-25T08:13:43.364Z,3.55
2019-03-25T08:14:43.344Z,3.61
2019-03-25T08:15:43.332Z,3.62
2019-03-25T08:16:43.322Z,3.72
2019-03-25T08:17:43.313Z,3.69
2019-03-25T08:18:43.306Z,3.72
2019-03-25T08:19:43.288Z,3.70
2019-03-25T08:20:43.279Z,3.72
2019-03-25T08:21:43.271Z,3.73
2019-03-25T08:22:43.256Z,3.70
2019-03-25T08:23:43.245Z,3.75
2019-03-25T08:24:43.234Z,3.72
2019-03-25T08:25:43.223Z,3.75
2019-03-25T08:26:43.215Z,3.83
2019-03-25T08:27:43.202Z,3.72
2019-03-25T08:28:43.198Z,3.72
2019-03-25T08:29:43.182Z,3.73
2019-03-25T08:30:43.172Z,3.70
2019-03-25T08:31:43.159Z,3.73
2019-03-25T08:32:43.151Z,3.70
2019-03-25T08:33:43.139Z,3.73
2019-03-25T08:34:43.128Z,3.72
2019-03-25T08:35:43.116Z,3.76
2019-03-25T08:36:43.106Z,3.73
2019-03-25T08:37:43.096Z,3.73
2019-03-25T08:38:43.088Z,3.86
2019-03-25T08:39:43.073Z,3.83
2019-03-25T08:40:43.063Z,3.79
2019-03-25T08:41:43.053Z,3.93
2019-03-25T08:42:43.040Z,3.94
2019-03-25T08:43:43.030Z,3.98
2019-03-25T08:44:43.020Z,4.02
2019-03-25T08:45:43.009Z,4.05
2019-03-25T08:46:42.998Z,3.94
2019-03-25T08:47:42.989Z,3.91
2019-03-25T08:48:43.044Z,4.12
2019-03-25T08:49:42.967Z,4.27
2019-03-25T08:50:42.959Z,4.23
2019-03-25T08:51:42.948Z,4.23
2019-03-25T08:52:42.936Z,4.36
2019-03-25T08:53:42.924Z,4.41
2019-03-25T08:54:42.913Z,4.40
2019-03-25T08:55:42.903Z,4.34
2019-03-25T08:56:42.893Z,4.24
2019-03-25T08:57:42.882Z,4.27
2019-03-25T08:58:42.876Z,4.27
2019-03-25T08:59:42.865Z,4.27
2019-03-25T09:00:42.849Z,4.30
2019-03-25T09:01:42.839Z,4.22
2019-03-25T09:02:42.827Z,4.12
2019-03-25T09:03:42.817Z,4.14
2019-03-25T09:04:42.810Z,4.22
2019-03-25T09:05:42.796Z,4.24
2019-03-25T09:06:42.785Z,4.26
2019-03-25T09:07:42.776Z,4.50
2019-03-25T09:08:42.766Z,4.70
2019-03-25T09:09:42.752Z,4.69
2019-03-25T09:10:42.742Z,4.84
2019-03-25T09:11:42.730Z,4.94
2019-03-25T09:12:42.728Z,5.00
2019-03-25T09:13:42.709Z,5.02
2019-03-25T09:14:42.702Z,5.03
2019-03-25T09:15:42.688Z,4.89
2019-03-25T09:16:42.676Z,4.96
2019-03-25T09:17:42.667Z,4.88
2019-03-25T09:18:42.659Z,4.78
2019-03-25T09:19:42.644Z,4.78
2019-03-25T09:20:42.633Z,4.88
2019-03-25T09:21:42.623Z,4.80
2019-03-25T09:22:42.614Z,4.82
2019-03-25T09:23:42.602Z,4.84
2019-03-25T09:24:42.592Z,4.97
2019-03-25T09:25:42.579Z,5.06
2019-03-25T09:26:42.568Z,5.22
2019-03-25T09:27:42.563Z,5.21
2019-03-25T09:28:42.550Z,5.17
2019-03-25T09:29:42.538Z,5.15
2019-03-25T09:30:42.526Z,5.24
2019-03-25T09:31:42.515Z,5.18
2019-03-25T09:32:42.502Z,5.35
2019-03-25T09:33:42.492Z,5.38
2019-03-25T09:34:42.481Z,5.56
2019-03-25T09:35:42.510Z,5.63
2019-03-25T09:36:42.460Z,5.83
2019-03-25T09:37:42.451Z,5.82
2019-03-25T09:38:42.444Z,5.81
2019-03-25T09:39:42.427Z,5.74
2019-03-25T09:40:42.417Z,5.78
2019-03-25T09:41:42.406Z,5.89
2019-03-25T09:42:42.396Z,5.96
2019-03-25T09:43:42.384Z,6.03
2019-03-25T09:44:42.373Z,6.08
2019-03-25T09:45:42.364Z,6.01
2019-03-25T09:46:42.353Z,6.17
2019-03-25T09:47:42.341Z,6.09
2019-03-25T09:48:42.335Z,6.15
2019-03-25T09:49:42.320Z,6.17
2019-03-25T09:50:42.310Z,6.19
2019-03-25T09:51:42.360Z,6.11
2019-03-25T09:52:42.287Z,6.09
2019-03-25T09:53:42.276Z,6.21
2019-03-25T09:54:42.268Z,6.19
2019-03-25T09:55:42.257Z,6.36
2019-03-25T09:56:42.249Z,6.41
2019-03-25T09:57:42.299Z,6.70
2019-03-25T09:58:42.228Z,6.88
2019-03-25T09:59:42.210Z,7.02
2019-03-25T10:00:42.200Z,7.02
2019-03-25T10:01:42.192Z,7.12
2019-03-25T10:02:42.179Z,7.24
2019-03-25T10:03:42.168Z,7.37
2019-03-25T10:04:42.158Z,7.28
2019-03-25T10:05:42.149Z,7.37
2019-03-25T10:06:42.137Z,7.42
2019-03-25T10:07:42.126Z,7.45
2019-03-25T10:08:42.118Z,7.34
2019-03-25T10:09:42.105Z,7.21
2019-03-25T10:10:42.097Z,7.24
2019-03-25T10:11:42.082Z,7.34
2019-03-25T10:12:42.073Z,7.15
2019-03-25T10:13:42.061Z,6.87
2019-03-25T10:14:42.051Z,6.89
2019-03-25T10:15:42.045Z,6.74
2019-03-25T10:16:42.029Z,6.74
2019-03-25T10:17:42.019Z,6.52
2019-03-25T10:18:42.009Z,6.38
2019-03-25T10:19:42.002Z,6.28
2019-03-25T10:20:41.988Z,6.14
2019-03-25T10:21:41.983Z,5.99
2019-03-25T10:22:41.965Z,5.89
2019-03-25T10:23:41.957Z,5.93
2019-03-25T10:24:41.943Z,5.91
2019-03-25T10:25:41.934Z,5.97
2019-03-25T10:26:41.920Z,5.86
2019-03-25T10:27:41.912Z,5.93
2019-03-25T10:28:48.546Z,5.96
2019-03-25T10:29:42.886Z,6.08
2019-03-25T10:30:41.877Z,6.15
2019-03-25T10:31:41.873Z,6.34
2019-03-25T10:32:41.854Z,6.88
2019-03-25T10:33:41.846Z,7.79
2019-03-25T10:34:41.833Z,7.75
2019-03-25T10:35:41.823Z,7.71
2019-03-25T10:36:41.813Z,7.69
2019-03-25T10:37:41.801Z,7.61
2019-03-25T10:38:41.793Z,7.37
2019-03-25T10:39:41.780Z,7.15
2019-03-25T10:40:41.768Z,6.85
2019-03-25T10:41:41.765Z,6.69
2019-03-25T10:42:41.748Z,6.41
2019-03-25T10:43:41.737Z,6.17
2019-03-25T10:44:41.731Z,6.11
2019-03-25T10:45:41.715Z,6.15
2019-03-25T10:46:41.707Z,6.48
2019-03-25T10:47:41.693Z,6.76
2019-03-25T10:48:41.686Z,7.16
2019-03-25T10:49:41.674Z,7.40
2019-03-25T10:50:41.661Z,7.60
2019-03-25T10:51:41.650Z,7.97
2019-03-25T10:52:41.640Z,8.38
2019-03-25T10:53:41.630Z,8.45
2019-03-25T10:54:41.716Z,8.63
2019-03-25T10:55:41.609Z,10.11
2019-03-25T10:56:48.985Z,11.00
2019-03-25T10:57:42.583Z,11.44
2019-03-25T10:58:41.576Z,11.28
2019-03-25T10:59:41.563Z,11.11
2019-03-25T11:00:41.562Z,10.55
2019-03-25T11:01:41.544Z,10.02
2019-03-25T11:02:41.532Z,9.38
2019-03-25T11:03:41.519Z,9.11
2019-03-25T11:04:41.509Z,8.50
2019-03-25T11:05:41.501Z,8.10
2019-03-25T11:06:41.486Z,7.82
2019-03-25T11:08:41.470Z,7.55
2019-03-25T11:09:41.453Z,7.53
2019-03-25T11:10:41.442Z,7.43
2019-03-25T11:11:41.433Z,7.61
2019-03-25T11:12:41.420Z,7.93
2019-03-25T11:13:41.412Z,7.83
2019-03-25T11:14:41.399Z,8.41
2019-03-25T11:15:41.387Z,8.43
2019-03-25T11:16:41.378Z,8.23
2019-03-25T11:17:41.366Z,8.43
2019-03-25T11:18:41.359Z,8.79
2019-03-25T11:19:41.353Z,9.61
2019-03-25T11:20:41.334Z,9.35
2019-03-25T11:21:41.323Z,9.05
2019-03-25T11:22:41.312Z,8.86
2019-03-25T11:23:41.301Z,8.70
2019-03-25T11:24:41.290Z,8.86
2019-03-25T11:25:41.279Z,8.96
2019-03-25T11:26:41.269Z,8.84
2019-03-25T11:27:41.257Z,8.77
2019-03-25T11:28:41.251Z,8.99
2019-03-25T11:29:41.240Z,8.96
2019-03-25T11:30:41.225Z,8.96
2019-03-25T11:31:41.215Z,9.69
2019-03-25T11:32:41.203Z,10.32
2019-03-25T11:33:41.193Z,9.91
2019-03-25T11:34:41.185Z,10.09
2019-03-25T11:35:41.178Z,10.92
2019-03-25T11:36:41.163Z,11.11
2019-03-25T11:37:41.149Z,10.27
2019-03-25T11:38:41.141Z,9.65
2019-03-25T11:39:41.128Z,9.26
2019-03-25T11:40:41.117Z,9.08
2019-03-25T11:41:41.106Z,8.94
2019-03-25T11:42:41.096Z,9.02
2019-03-25T11:43:41.083Z,9.75
2019-03-25T11:44:41.073Z,9.47
2019-03-25T11:45:41.062Z,9.29
2019-03-25T11:46:41.053Z,9.28
2019-03-25T11:47:41.040Z,9.48
2019-03-25T11:48:41.032Z,9.79
2019-03-25T11:49:41.018Z,10.30
2019-03-25T11:50:41.008Z,11.24
2019-03-25T11:51:40.999Z,11.70
2019-03-25T11:52:40.986Z,10.79
2019-03-25T11:53:40.974Z,10.44
2019-03-25T11:54:40.964Z,9.93
2019-03-25T11:55:40.952Z,9.65
2019-03-25T11:56:40.943Z,9.31
2019-03-25T11:57:40.932Z,9.48
2019-03-25T11:58:40.923Z,10.56
2019-03-25T11:59:40.909Z,11.03
2019-03-25T12:00:40.897Z,11.55
2019-03-25T12:01:40.886Z,12.29
2019-03-25T12:02:40.880Z,12.34
2019-03-25T12:03:40.867Z,11.95
2019-03-25T12:04:40.864Z,11.55
2019-03-25T12:05:40.860Z,11.57
2019-03-25T12:06:40.833Z,11.98
2019-03-25T12:07:40.821Z,12.42
2019-03-25T12:08:40.813Z,12.60
2019-03-25T12:09:41.656Z,13.10
2019-03-25T12:10:40.789Z,13.17
2019-03-25T12:11:40.778Z,13.69
2019-03-25T12:12:40.768Z,14.02
2019-03-25T12:13:40.795Z,13.41
2019-03-25T12:14:40.744Z,13.89
2019-03-25T12:15:40.735Z,13.79
2019-03-25T12:16:40.723Z,13.99
2019-03-25T12:17:40.715Z,14.18
2019-03-25T12:18:40.702Z,14.51
2019-03-25T12:19:40.691Z,14.94
2019-03-25T12:20:40.680Z,14.12
2019-03-25T12:21:40.669Z,12.71
2019-03-25T12:22:40.658Z,11.54
2019-03-25T12:23:40.650Z,11.11
2019-03-25T12:24:40.639Z,11.32
2019-03-25T12:25:40.628Z,10.79
2019-03-25T12:26:40.616Z,10.14
2019-03-25T12:27:40.697Z,9.76
2019-03-25T12:28:40.596Z,9.39
2019-03-25T12:29:40.586Z,9.56
2019-03-25T12:30:40.572Z,10.82
2019-03-25T12:31:40.562Z,10.47
2019-03-25T12:32:40.551Z,9.96
2019-03-25T12:33:40.543Z,10.56
2019-03-25T12:34:40.529Z,10.82
2019-03-25T12:35:40.518Z,10.71
2019-03-25T12:36:40.507Z,10.34
2019-03-25T12:37:40.496Z,10.01
2019-03-25T12:38:40.485Z,10.22
2019-03-25T12:39:40.475Z,10.22
2019-03-25T12:40:40.462Z,9.89
2019-03-25T12:41:40.452Z,9.99
2019-03-25T12:42:40.441Z,11.29
2019-03-25T12:43:40.430Z,12.59
2019-03-25T12:44:40.418Z,13.22
2019-03-25T12:45:40.407Z,13.67
2019-03-25T12:46:40.398Z,13.48
2019-03-25T12:47:40.387Z,13.78
2019-03-25T12:48:40.375Z,13.60
2019-03-25T12:49:40.367Z,14.07
2019-03-25T12:50:40.353Z,14.10
2019-03-25T12:51:40.345Z,14.42
2019-03-25T12:52:40.332Z,14.69
2019-03-25T12:53:40.322Z,14.81
2019-03-25T12:54:40.311Z,14.81
2019-03-25T12:55:40.300Z,14.04
2019-03-25T12:56:40.292Z,13.91
2019-03-25T12:57:40.279Z,13.82
2019-03-25T12:58:40.272Z,14.39
2019-03-25T12:59:41.411Z,14.54
2019-03-25T13:00:40.246Z,14.96
2019-03-25T13:01:40.235Z,14.92
2019-03-25T13:02:40.229Z,14.68
2019-03-25T13:03:40.825Z,14.65
2019-03-25T13:04:40.202Z,14.92
2019-03-25T13:05:40.192Z,15.10
2019-03-25T13:06:40.185Z,14.55
2019-03-25T13:07:40.171Z,14.92
2019-03-25T13:08:40.159Z,14.88
2019-03-25T13:09:40.147Z,14.51
2019-03-25T13:10:40.140Z,14.62
2019-03-25T13:11:40.133Z,15.17
2019-03-25T13:12:40.115Z,15.94
2019-03-25T13:13:40.111Z,16.23
2019-03-25T13:14:40.094Z,15.25
2019-03-25T13:15:40.086Z,13.87
2019-03-25T13:16:40.074Z,12.93